Time;durP1;ratioP1;P1;durP2;ratioP2;P2;SDS_P1;SDS_P2;PMS_P1;PMS_P2;Temp;Humidity;BMP_temperature;BMP_pressure;BME280_temperature;BME280_humidity;BME280_pressure;Samples;Min_cycle;Max_cycle;Signal;HPM_P1;HPM_P2
2022/01/09 00:00:10;;;;;;;3.47;3.00;;;;;;;;;;5045623;28;20248;-73
2022/01/09 00:02:35;;;;;;;4.33;3.30;;;;;;;;;;5039877;28;20202;-74
2022/01/09 00:05:00;;;;;;;6.10;4.40;;;;;;;;;;5043829;28;20235;-73
2022/01/09 00:07:26;;;;;;;5.17;3.90;;;;;;;;;;5049660;28;20189;-74
2022/01/09 00:09:51;;;;;;;5.47;3.93;;;;;;;;;;5048036;28;20651;-73
2022/01/09 00:12:16;;;;;;;4.63;3.97;;;;;;;;;;5045326;28;20700;-73
2022/01/09 00:14:42;;;;;;;4.60;4.00;;;;;;;;;;5046393;28;20636;-73
2022/01/09 00:17:07;;;;;;;4.43;3.73;;;;;;;;;;5042930;28;20716;-73
2022/01/09 00:19:32;;;;;;;4.50;3.60;;;;;;;;;;5046063;28;20212;-73
2022/01/09 00:21:58;;;;;;;4.87;4.07;;;;;;;;;;5042926;28;20240;-73
2022/01/09 00:24:23;;;;;;;4.90;3.77;;;;;;;;;;5046607;28;20190;-72
2022/01/09 00:26:48;;;;;;;5.73;4.50;;;;;;;;;;5045612;28;20213;-73
2022/01/09 00:29:14;;;;;;;5.40;4.33;;;;;;;;;;5046910;28;20193;-72
2022/01/09 00:31:39;;;;;;;4.77;4.27;;;;;;;;;;5046389;28;20684;-73
2022/01/09 00:34:05;;;;;;;6.57;5.73;;;;;;;;;;5048735;28;20538;-73
2022/01/09 00:36:33;;;;;;;5.57;4.73;;;;;;;;;;5046752;28;20173;-73
2022/01/09 00:38:58;;;;;;;5.57;4.73;;;;;;;;;;5046702;28;20649;-73
2022/01/09 00:41:24;;;;;;;7.80;5.40;;;;;;;;;;5040641;28;20260;-74
2022/01/09 00:43:50;;;;;;;6.93;5.57;;;;;;;;;;5050829;28;20181;-73
2022/01/09 00:46:16;;;;;;;7.30;5.83;;;;;;;;;;5043257;28;20178;-73
2022/01/09 00:48:42;;;;;;;5.73;4.83;;;;;;;;;;5039630;28;21163;-73
2022/01/09 00:51:07;;;;;;;6.57;5.00;;;;;;;;;;5044854;28;20205;-74
2022/01/09 00:53:32;;;;;;;5.67;4.87;;;;;;;;;;5048715;28;20189;-72
2022/01/09 00:55:58;;;;;;;6.47;5.53;;;;;;;;;;5040854;28;20276;-72
2022/01/09 00:58:23;;;;;;;9.33;6.60;;;;;;;;;;5042829;28;20231;-71
2022/01/09 01:00:48;;;;;;;9.00;7.07;;;;;;;;;;5043890;28;20592;-71
2022/01/09 01:03:14;;;;;;;8.03;6.57;;;;;;;;;;5048179;28;20206;-71
2022/01/09 01:05:39;;;;;;;9.43;7.50;;;;;;;;;;5041029;28;20170;-72
2022/01/09 01:08:05;;;;;;;10.07;8.27;;;;;;;;;;5043930;28;20296;-72
2022/01/09 01:10:30;;;;;;;10.97;8.77;;;;;;;;;;5037651;28;20590;-72
2022/01/09 01:12:55;;;;;;;10.30;8.67;;;;;;;;;;5045963;28;20231;-74
2022/01/09 01:15:21;;;;;;;9.83;8.63;;;;;;;;;;5042901;28;20744;-72
2022/01/09 01:17:46;;;;;;;13.27;9.93;;;;;;;;;;5046559;28;20193;-73
2022/01/09 01:20:12;;;;;;;9.87;8.70;;;;;;;;;;5044601;28;20189;-73
2022/01/09 01:22:40;;;;;;;10.73;8.37;;;;;;;;;;5041753;28;20210;-73
2022/01/09 01:25:06;;;;;;;13.27;9.60;;;;;;;;;;5046301;28;20264;-73
2022/01/09 01:27:32;;;;;;;13.17;9.83;;;;;;;;;;5039148;28;20178;-73
2022/01/09 01:29:57;;;;;;;13.57;11.10;;;;;;;;;;5046833;28;20216;-71
2022/01/09 01:32:23;;;;;;;14.67;11.30;;;;;;;;;;5039698;28;20182;-72
2022/01/09 01:34:49;;;;;;;13.13;10.40;;;;;;;;;;5041654;28;20247;-71
2022/01/09 01:37:14;;;;;;;13.90;11.00;;;;;;;;;;5040315;28;20672;-71
2022/01/09 01:39:40;;;;;;;14.50;11.50;;;;;;;;;;5047618;28;20664;-72
2022/01/09 01:42:06;;;;;;;13.50;11.17;;;;;;;;;;5041180;28;20801;-71
2022/01/09 01:44:43;;;;;;;16.23;12.53;;;;;;;;;;5042182;28;20645;-72
2022/01/09 01:47:09;;;;;;;16.67;13.10;;;;;;;;;;5038901;28;20644;-71
2022/01/09 01:49:34;;;;;;;16.27;12.80;;;;;;;;;;5043490;28;20209;-73
2022/01/09 01:52:00;;;;;;;16.17;12.80;;;;;;;;;;5034236;28;20194;-73
2022/01/09 01:54:27;;;;;;;16.97;14.13;;;;;;;;;;5035050;28;20189;-73
2022/01/09 01:56:52;;;;;;;19.60;16.00;;;;;;;;;;5040202;28;20615;-73
2022/01/09 01:59:18;;;;;;;16.53;14.30;;;;;;;;;;5037129;28;20214;-73
2022/01/09 02:01:43;;;;;;;18.33;15.13;;;;;;;;;;5048792;28;20293;-71
2022/01/09 02:04:08;;;;;;;18.33;15.40;;;;;;;;;;5037275;28;20276;-73
2022/01/09 02:06:34;;;;;;;19.13;16.33;;;;;;;;;;5041556;28;20191;-74
2022/01/09 02:09:00;;;;;;;20.07;15.50;;;;;;;;;;5042235;28;20276;-73
2022/01/09 02:11:26;;;;;;;18.40;15.60;;;;;;;;;;5039590;28;20259;-74
2022/01/09 02:13:51;;;;;;;19.20;15.50;;;;;;;;;;5043978;28;20192;-73
2022/01/09 02:16:17;;;;;;;18.67;15.07;;;;;;;;;;5042959;28;20228;-74
2022/01/09 02:18:47;;;;;;;18.27;13.40;;;;;;;;;;5042230;28;20178;-73
2022/01/09 02:21:13;;;;;;;17.20;13.60;;;;;;;;;;5043918;28;20605;-73
2022/01/09 02:23:41;;;;;;;17.73;13.13;;;;;;;;;;5044110;28;20232;-74
2022/01/09 02:26:07;;;;;;;17.20;13.20;;;;;;;;;;5041857;28;20701;-74
2022/01/09 02:28:32;;;;;;;21.20;14.80;;;;;;;;;;5042341;28;20197;-74
2022/01/09 02:30:58;;;;;;;18.10;14.60;;;;;;;;;;5042333;28;20271;-73
2022/01/09 02:33:23;;;;;;;20.07;15.53;;;;;;;;;;5042887;28;20660;-74
2022/01/09 02:35:51;;;;;;;19.53;14.27;;;;;;;;;;5041167;28;20261;-76
2022/01/09 02:38:18;;;;;;;21.60;14.60;;;;;;;;;;5041647;28;21106;-73
2022/01/09 02:40:44;;;;;;;18.90;13.60;;;;;;;;;;5046518;28;20596;-74
2022/01/09 02:43:09;;;;;;;17.60;13.03;;;;;;;;;;5043150;28;20201;-74
2022/01/09 02:45:35;;;;;;;17.83;13.07;;;;;;;;;;5042982;28;20284;-74
2022/01/09 02:48:02;;;;;;;18.57;13.27;;;;;;;;;;5042660;28;20212;-74
2022/01/09 02:50:36;;;;;;;18.50;12.50;;;;;;;;;;5038392;28;20593;-73
2022/01/09 02:53:13;;;;;;;21.00;13.23;;;;;;;;;;5044233;28;20276;-73
2022/01/09 02:55:38;;;;;;;18.47;13.53;;;;;;;;;;5043325;28;20562;-73
2022/01/09 02:58:04;;;;;;;18.87;13.90;;;;;;;;;;5044554;28;20225;-74
2022/01/09 03:00:33;;;;;;;19.07;13.33;;;;;;;;;;5043064;28;20197;-73
2022/01/09 03:02:58;;;;;;;17.07;12.43;;;;;;;;;;5042318;28;20232;-74
2022/01/09 03:05:24;;;;;;;15.23;11.67;;;;;;;;;;5027012;28;20217;-74
2022/01/09 03:07:50;;;;;;;15.23;10.80;;;;;;;;;;5039854;28;20186;-74
2022/01/09 03:10:17;;;;;;;16.33;10.83;;;;;;;;;;5038937;28;20181;-73
2022/01/09 03:12:43;;;;;;;15.03;10.83;;;;;;;;;;5045113;28;20583;-72
2022/01/09 03:15:10;;;;;;;15.17;9.80;;;;;;;;;;5042663;28;20200;-72
2022/01/09 03:17:35;;;;;;;15.67;9.97;;;;;;;;;;5042999;28;20196;-74
2022/01/09 03:20:02;;;;;;;13.40;9.47;;;;;;;;;;5041496;28;20177;-74
2022/01/09 03:22:27;;;;;;;14.30;8.93;;;;;;;;;;5043699;28;20303;-73
2022/01/09 03:24:52;;;;;;;14.97;8.50;;;;;;;;;;5047072;28;20219;-73
2022/01/09 03:27:18;;;;;;;11.53;6.73;;;;;;;;;;5045292;28;20242;-73
2022/01/09 03:29:44;;;;;;;11.23;5.50;;;;;;;;;;5043011;28;20185;-73
2022/01/09 03:32:09;;;;;;;10.00;5.90;;;;;;;;;;5048090;28;20189;-73
2022/01/09 03:34:36;;;;;;;10.87;5.87;;;;;;;;;;5047843;28;20227;-73
2022/01/09 03:37:02;;;;;;;13.70;6.27;;;;;;;;;;5046963;28;20582;-72
2022/01/09 03:39:27;;;;;;;11.57;5.97;;;;;;;;;;5046628;28;20193;-71
2022/01/09 03:41:55;;;;;;;9.40;5.30;;;;;;;;;;5046123;28;20194;-71
2022/01/09 03:44:21;;;;;;;7.50;5.03;;;;;;;;;;5041411;28;20694;-70
2022/01/09 03:46:46;;;;;;;12.90;5.37;;;;;;;;;;5050044;28;20185;-70
2022/01/09 03:49:11;;;;;;;21.17;5.00;;;;;;;;;;5046844;28;20180;-70
2022/01/09 03:51:37;;;;;;;15.27;5.00;;;;;;;;;;5048259;28;20208;-69
2022/01/09 03:54:06;;;;;;;21.67;4.60;;;;;;;;;;5044591;28;20626;-70
2022/01/09 03:56:32;;;;;;;15.10;4.00;;;;;;;;;;5046926;28;20702;-69
2022/01/09 03:58:58;;;;;;;24.80;4.93;;;;;;;;;;5045556;28;20221;-69
2022/01/09 04:01:24;;;;;;;26.63;5.37;;;;;;;;;;5042169;28;20560;-69
2022/01/09 04:03:50;;;;;;;20.93;4.13;;;;;;;;;;5048466;28;20189;-69
2022/01/09 04:06:16;;;;;;;35.97;4.53;;;;;;;;;;5039196;28;20208;-69
2022/01/09 04:08:41;;;;;;;35.17;4.30;;;;;;;;;;5047992;28;20177;-68
2022/01/09 04:11:08;;;;;;;31.17;4.20;;;;;;;;;;5046360;28;20212;-70
2022/01/09 04:13:34;;;;;;;36.53;4.97;;;;;;;;;;5047148;28;20185;-68
2022/01/09 04:15:59;;;;;;;38.47;4.70;;;;;;;;;;5049063;28;20529;-67
2022/01/09 04:18:25;;;;;;;34.00;4.20;;;;;;;;;;5047809;28;20192;-68
2022/01/09 04:20:51;;;;;;;37.90;4.87;;;;;;;;;;5045031;28;20579;-68
2022/01/09 04:23:18;;;;;;;44.30;4.63;;;;;;;;;;5045089;28;20241;-68
2022/01/09 04:25:45;;;;;;;41.50;5.57;;;;;;;;;;5046370;28;20254;-68
2022/01/09 04:28:11;;;;;;;44.53;5.70;;;;;;;;;;5042848;28;20578;-68
2022/01/09 04:30:37;;;;;;;39.60;4.83;;;;;;;;;;5049076;28;20201;-68
2022/01/09 04:33:02;;;;;;;36.90;5.17;;;;;;;;;;5040062;28;20191;-68
2022/01/09 04:35:28;;;;;;;37.33;4.70;;;;;;;;;;5045597;28;20672;-68
2022/01/09 04:37:54;;;;;;;38.47;4.37;;;;;;;;;;5043752;28;20182;-68
2022/01/09 04:40:20;;;;;;;34.03;4.50;;;;;;;;;;5046732;28;20224;-68
2022/01/09 04:42:51;;;;;;;48.83;5.80;;;;;;;;;;5040639;28;20256;-68
2022/01/09 04:45:18;;;;;;;38.87;5.73;;;;;;;;;;5042593;28;20191;-68
2022/01/09 04:47:47;;;;;;;38.30;6.00;;;;;;;;;;5043181;28;20185;-68
2022/01/09 04:50:17;;;;;;;38.93;4.07;;;;;;;;;;5045116;28;20186;-69
2022/01/09 04:52:43;;;;;;;24.93;4.40;;;;;;;;;;5040552;28;20186;-69
2022/01/09 04:55:09;;;;;;;43.27;4.57;;;;;;;;;;5044596;28;20707;-69
2022/01/09 04:57:35;;;;;;;30.07;4.47;;;;;;;;;;5044543;28;20189;-69
2022/01/09 05:00:00;;;;;;;26.17;4.23;;;;;;;;;;5045544;28;20613;-69
2022/01/09 05:02:26;;;;;;;32.13;4.63;;;;;;;;;;5048152;28;20211;-69
2022/01/09 05:04:51;;;;;;;24.70;3.63;;;;;;;;;;5045394;28;20177;-69
2022/01/09 05:07:17;;;;;;;27.20;3.90;;;;;;;;;;5046095;28;20771;-68
2022/01/09 05:09:42;;;;;;;36.30;4.80;;;;;;;;;;5044415;28;20188;-69
2022/01/09 05:12:08;;;;;;;28.30;4.50;;;;;;;;;;5043821;28;20216;-69
2022/01/09 05:14:33;;;;;;;27.70;3.83;;;;;;;;;;5043736;28;20213;-69
2022/01/09 05:16:59;;;;;;;32.60;5.00;;;;;;;;;;5048150;28;20678;-68
2022/01/09 05:19:28;;;;;;;26.47;4.37;;;;;;;;;;5045020;28;20185;-69
2022/01/09 05:21:55;;;;;;;28.87;4.47;;;;;;;;;;5047465;28;20205;-68
2022/01/09 05:24:20;;;;;;;32.27;5.53;;;;;;;;;;5044838;28;20669;-68
2022/01/09 05:26:46;;;;;;;24.00;3.17;;;;;;;;;;5041639;28;20229;-68
2022/01/09 05:29:11;;;;;;;22.47;3.33;;;;;;;;;;5038741;28;20257;-69
2022/01/09 05:31:37;;;;;;;25.03;2.97;;;;;;;;;;5044622;28;20201;-69
2022/01/09 05:34:03;;;;;;;25.10;3.27;;;;;;;;;;5045628;28;20186;-69
2022/01/09 05:36:28;;;;;;;25.37;2.93;;;;;;;;;;5044011;28;20192;-70
2022/01/09 05:38:54;;;;;;;26.70;3.80;;;;;;;;;;5047461;28;20189;-72
2022/01/09 05:41:19;;;;;;;24.47;3.03;;;;;;;;;;5044951;28;20295;-72
2022/01/09 05:43:44;;;;;;;24.27;3.57;;;;;;;;;;5046628;28;20189;-73
2022/01/09 05:46:11;;;;;;;18.93;2.93;;;;;;;;;;5045144;28;20177;-72
2022/01/09 05:48:36;;;;;;;13.73;2.30;;;;;;;;;;5041349;28;20649;-71
2022/01/09 05:51:02;;;;;;;17.43;2.37;;;;;;;;;;5042910;28;20186;-71
2022/01/09 05:53:27;;;;;;;18.33;2.63;;;;;;;;;;5042302;28;20213;-71
2022/01/09 05:55:52;;;;;;;18.50;2.30;;;;;;;;;;5044022;28;20303;-71
2022/01/09 05:58:18;;;;;;;13.17;2.10;;;;;;;;;;5045753;28;20656;-71
2022/01/09 06:00:43;;;;;;;14.23;1.70;;;;;;;;;;5043404;28;20193;-70
2022/01/09 06:03:08;;;;;;;13.90;2.37;;;;;;;;;;5045899;28;20220;-71
2022/01/09 06:05:34;;;;;;;14.03;2.50;;;;;;;;;;5037175;28;20796;-71
2022/01/09 06:07:59;;;;;;;11.37;2.00;;;;;;;;;;5046375;28;20186;-70
2022/01/09 06:10:25;;;;;;;18.13;2.50;;;;;;;;;;5041037;28;20182;-69
2022/01/09 06:12:50;;;;;;;11.73;1.60;;;;;;;;;;5045978;28;20319;-70
2022/01/09 06:15:15;;;;;;;13.80;1.90;;;;;;;;;;5034233;28;20211;-69
2022/01/09 06:17:42;;;;;;;13.77;1.50;;;;;;;;;;5040298;28;20228;-69
2022/01/09 06:20:09;;;;;;;11.77;1.93;;;;;;;;;;5044352;28;20258;-69
2022/01/09 06:22:35;;;;;;;12.07;1.57;;;;;;;;;;5043362;28;20197;-69
2022/01/09 06:25:01;;;;;;;14.10;1.87;;;;;;;;;;5039333;28;20196;-69
2022/01/09 06:27:26;;;;;;;15.53;1.67;;;;;;;;;;5043454;28;20272;-69
2022/01/09 06:29:52;;;;;;;9.30;1.33;;;;;;;;;;5046870;28;20683;-69
2022/01/09 06:32:17;;;;;;;17.87;1.43;;;;;;;;;;5041036;28;20225;-69
2022/01/09 06:34:42;;;;;;;20.27;2.87;;;;;;;;;;5042633;28;20691;-68
2022/01/09 06:37:08;;;;;;;16.33;1.77;;;;;;;;;;5041750;28;20594;-69
2022/01/09 06:39:34;;;;;;;14.23;1.70;;;;;;;;;;5043784;28;20196;-68
2022/01/09 06:41:59;;;;;;;14.50;2.10;;;;;;;;;;5041962;28;20201;-69
2022/01/09 06:44:25;;;;;;;10.63;1.43;;;;;;;;;;5040797;28;20190;-68
2022/01/09 06:46:50;;;;;;;18.27;2.67;;;;;;;;;;5044054;28;20181;-68
2022/01/09 06:49:16;;;;;;;15.50;1.90;;;;;;;;;;5045999;28;20700;-68
2022/01/09 06:51:41;;;;;;;15.57;1.83;;;;;;;;;;5040888;28;20170;-69
2022/01/09 06:54:08;;;;;;;16.73;1.90;;;;;;;;;;5043769;28;20185;-68
2022/01/09 06:56:33;;;;;;;12.13;1.83;;;;;;;;;;5043886;28;20229;-68
2022/01/09 06:58:58;;;;;;;12.57;1.97;;;;;;;;;;5039884;28;20256;-68
2022/01/09 07:01:23;;;;;;;19.50;3.03;;;;;;;;;;5042989;28;20186;-68
2022/01/09 07:03:49;;;;;;;14.57;1.90;;;;;;;;;;5042326;28;20193;-68
2022/01/09 07:06:14;;;;;;;16.60;2.40;;;;;;;;;;5041731;28;20269;-69
2022/01/09 07:08:40;;;;;;;14.97;2.50;;;;;;;;;;5044286;28;20637;-69
2022/01/09 07:11:06;;;;;;;17.13;2.80;;;;;;;;;;5042223;28;20597;-68
2022/01/09 07:13:32;;;;;;;12.00;1.80;;;;;;;;;;5042947;28;20610;-67
2022/01/09 07:15:58;;;;;;;19.80;2.30;;;;;;;;;;5038544;28;20220;-68
2022/01/09 07:18:24;;;;;;;13.50;2.03;;;;;;;;;;5043720;28;20590;-68
2022/01/09 07:20:49;;;;;;;21.03;2.50;;;;;;;;;;5036857;28;20271;-69
2022/01/09 07:23:15;;;;;;;19.33;2.40;;;;;;;;;;5040405;28;20202;-70
2022/01/09 07:25:40;;;;;;;20.77;3.07;;;;;;;;;;5042612;28;20189;-69
2022/01/09 07:28:06;;;;;;;21.83;4.17;;;;;;;;;;5042060;28;20239;-69
2022/01/09 07:30:31;;;;;;;15.17;1.87;;;;;;;;;;5043293;28;20209;-69
2022/01/09 07:32:57;;;;;;;14.17;2.47;;;;;;;;;;5039788;28;20275;-69
2022/01/09 07:35:23;;;;;;;24.00;2.77;;;;;;;;;;5040987;28;20572;-68
2022/01/09 07:37:49;;;;;;;19.53;2.00;;;;;;;;;;5039855;28;20272;-68
2022/01/09 07:40:15;;;;;;;17.80;2.50;;;;;;;;;;5042812;28;20710;-69
2022/01/09 07:42:41;;;;;;;12.73;2.50;;;;;;;;;;5040779;28;20216;-69
2022/01/09 07:45:07;;;;;;;15.97;2.50;;;;;;;;;;5041043;28;20264;-69
2022/01/09 07:47:33;;;;;;;19.93;2.77;;;;;;;;;;5041359;28;20181;-69
2022/01/09 07:49:59;;;;;;;17.90;2.30;;;;;;;;;;5044571;28;20209;-69
2022/01/09 07:52:24;;;;;;;19.13;2.37;;;;;;;;;;5043254;28;20542;-69
2022/01/09 07:54:49;;;;;;;15.60;2.67;;;;;;;;;;5042084;28;20182;-69
2022/01/09 07:57:15;;;;;;;16.63;2.93;;;;;;;;;;5045688;28;20182;-68
2022/01/09 07:59:40;;;;;;;21.13;2.53;;;;;;;;;;5043797;28;20249;-68
2022/01/09 08:02:06;;;;;;;17.77;2.37;;;;;;;;;;5044261;28;20611;-68
2022/01/09 08:04:32;;;;;;;16.57;2.40;;;;;;;;;;5042064;28;20193;-68
2022/01/09 08:06:57;;;;;;;16.70;2.73;;;;;;;;;;5046050;28;20542;-68
2022/01/09 08:09:23;;;;;;;15.37;2.50;;;;;;;;;;5042283;28;20257;-68
2022/01/09 08:11:49;;;;;;;18.40;2.57;;;;;;;;;;5041196;28;20185;-68
2022/01/09 08:14:14;;;;;;;14.97;3.00;;;;;;;;;;5041655;28;20224;-68
2022/01/09 08:16:40;;;;;;;20.07;2.30;;;;;;;;;;4343515;28;10001065;-69
2022/01/09 08:19:05;;;;;;;15.93;2.67;;;;;;;;;;5041631;28;20193;-69
2022/01/09 08:21:31;;;;;;;18.07;2.77;;;;;;;;;;5036499;28;20189;-69
2022/01/09 08:23:56;;;;;;;17.17;2.57;;;;;;;;;;5042190;28;20299;-68
2022/01/09 08:26:21;;;;;;;16.67;2.80;;;;;;;;;;5043722;28;20197;-68
2022/01/09 08:28:48;;;;;;;20.87;2.20;;;;;;;;;;5043006;28;20217;-68
2022/01/09 08:31:17;;;;;;;20.40;2.43;;;;;;;;;;5041770;28;20212;-68
2022/01/09 08:33:43;;;;;;;19.80;2.77;;;;;;;;;;5035400;28;20189;-68
2022/01/09 08:36:09;;;;;;;26.27;3.27;;;;;;;;;;5045046;28;20189;-68
2022/01/09 08:38:34;;;;;;;20.27;2.43;;;;;;;;;;5043117;28;20197;-68
2022/01/09 08:41:00;;;;;;;11.93;2.03;;;;;;;;;;5043093;28;20216;-68
2022/01/09 08:43:25;;;;;;;17.23;2.53;;;;;;;;;;5039198;28;21461;-68
2022/01/09 08:45:51;;;;;;;20.37;2.57;;;;;;;;;;5041645;28;20220;-68
2022/01/09 08:48:17;;;;;;;12.20;1.90;;;;;;;;;;5039171;28;20189;-68
2022/01/09 08:50:43;;;;;;;14.87;2.27;;;;;;;;;;5044965;28;20197;-68
2022/01/09 08:53:08;;;;;;;12.30;2.00;;;;;;;;;;5041360;28;20200;-67
2022/01/09 08:55:33;;;;;;;14.77;2.33;;;;;;;;;;5044717;28;20747;-67
2022/01/09 08:57:58;;;;;;;13.43;2.40;;;;;;;;;;5042840;28;20237;-67
2022/01/09 09:00:27;;;;;;;13.97;2.13;;;;;;;;;;5044842;28;20212;-67
2022/01/09 09:02:52;;;;;;;13.37;1.90;;;;;;;;;;5041206;28;20202;-67
2022/01/09 09:05:18;;;;;;;15.00;2.20;;;;;;;;;;5039710;28;20200;-68
2022/01/09 09:07:44;;;;;;;13.40;1.77;;;;;;;;;;5042778;28;20180;-67
2022/01/09 09:10:09;;;;;;;11.60;1.60;;;;;;;;;;5048009;28;20189;-67
2022/01/09 09:12:35;;;;;;;15.13;2.00;;;;;;;;;;5044273;28;20192;-67
2022/01/09 09:15:04;;;;;;;11.30;1.63;;;;;;;;;;5044774;28;20718;-68
2022/01/09 09:17:30;;;;;;;13.00;2.60;;;;;;;;;;5046615;28;20181;-68
2022/01/09 09:19:56;;;;;;;11.10;1.83;;;;;;;;;;5042859;28;20204;-68
2022/01/09 09:22:22;;;;;;;14.80;2.33;;;;;;;;;;5045654;28;20665;-68
2022/01/09 09:24:48;;;;;;;12.30;2.03;;;;;;;;;;5043092;28;20645;-67
2022/01/09 09:27:13;;;;;;;13.87;2.23;;;;;;;;;;5044225;28;20185;-68
2022/01/09 09:29:38;;;;;;;10.93;1.90;;;;;;;;;;5046072;28;20692;-68
2022/01/09 09:32:04;;;;;;;10.00;2.27;;;;;;;;;;5039752;28;20875;-68
2022/01/09 09:34:30;;;;;;;13.57;2.03;;;;;;;;;;4692379;28;10000107;-68
2022/01/09 09:36:55;;;;;;;13.67;3.33;;;;;;;;;;5040646;28;20189;-67
2022/01/09 09:39:20;;;;;;;14.47;2.33;;;;;;;;;;5041566;28;20197;-68
2022/01/09 09:41:46;;;;;;;14.67;3.03;;;;;;;;;;5042938;28;20209;-67
2022/01/09 09:44:12;;;;;;;11.80;2.40;;;;;;;;;;5040165;28;20189;-68
2022/01/09 09:46:39;;;;;;;11.07;2.30;;;;;;;;;;5042880;28;20201;-68
2022/01/09 09:49:04;;;;;;;18.37;2.30;;;;;;;;;;5040371;28;20711;-68
2022/01/09 09:51:30;;;;;;;11.00;3.20;;;;;;;;;;5038715;28;20185;-68
2022/01/09 09:53:57;;;;;;;16.43;2.63;;;;;;;;;;5042537;28;20193;-68
2022/01/09 09:56:23;;;;;;;11.07;2.40;;;;;;;;;;5041376;28;20254;-68
2022/01/09 09:58:50;;;;;;;11.23;2.33;;;;;;;;;;5038516;28;20233;-68
2022/01/09 10:01:24;;;;;;;10.67;2.07;;;;;;;;;;5039339;28;20190;-68
2022/01/09 10:04:00;;;;;;;10.87;1.97;;;;;;;;;;5041215;28;20235;-68
2022/01/09 10:06:40;;;;;;;11.47;2.37;;;;;;;;;;5037876;28;20181;-69
2022/01/09 10:09:25;;;;;;;12.87;1.90;;;;;;;;;;5043796;28;20188;-68
2022/01/09 10:11:55;;;;;;;12.40;2.60;;;;;;;;;;5040743;28;20177;-68
2022/01/09 10:14:23;;;;;;;11.70;2.17;;;;;;;;;;5044867;28;20211;-68
2022/01/09 10:17:07;;;;;;;10.47;2.10;;;;;;;;;;5033768;28;20486;-68
2022/01/09 10:19:49;;;;;;;9.27;1.90;;;;;;;;;;5044314;28;20185;-68
2022/01/09 10:22:34;;;;;;;12.20;2.00;;;;;;;;;;5043261;28;20209;-68
2022/01/09 10:25:20;;;;;;;10.37;2.40;;;;;;;;;;5041892;28;20512;-68
2022/01/09 10:27:47;;;;;;;8.60;1.73;;;;;;;;;;5049867;28;20224;-68
2022/01/09 10:30:13;;;;;;;6.63;1.73;;;;;;;;;;5042508;28;21286;-67
2022/01/09 10:32:39;;;;;;;7.37;1.80;;;;;;;;;;5043612;28;20276;-67
2022/01/09 10:35:19;;;;;;;7.37;2.10;;;;;;;;;;5044062;28;20268;-67
2022/01/09 10:37:46;;;;;;;8.77;1.70;;;;;;;;;;5044692;28;20667;-67
2022/01/09 10:40:28;;;;;;;11.07;1.53;;;;;;;;;;5043343;28;20185;-68
2022/01/09 10:43:09;;;;;;;7.30;1.60;;;;;;;;;;5035667;28;20296;-68
2022/01/09 10:45:49;;;;;;;11.17;2.13;;;;;;;;;;5043513;28;20574;-68
2022/01/09 10:48:20;;;;;;;9.10;2.00;;;;;;;;;;5047197;28;20617;-68
2022/01/09 10:50:47;;;;;;;7.23;1.73;;;;;;;;;;5046581;28;20599;-67
2022/01/09 10:53:18;;;;;;;12.63;2.33;;;;;;;;;;5045048;28;20182;-68
2022/01/09 10:55:46;;;;;;;8.33;1.67;;;;;;;;;;5044003;28;20626;-68
2022/01/09 10:58:22;;;;;;;11.60;2.17;;;;;;;;;;5042474;28;20723;-68
2022/01/09 11:01:05;;;;;;;9.87;1.80;;;;;;;;;;5042612;28;20280;-67
2022/01/09 11:03:30;;;;;;;14.37;2.10;;;;;;;;;;5042574;28;20561;-67
2022/01/09 11:05:57;;;;;;;14.37;2.33;;;;;;;;;;5041746;28;20182;-67
2022/01/09 11:08:22;;;;;;;9.50;1.90;;;;;;;;;;5045515;28;20178;-67
2022/01/09 11:10:48;;;;;;;11.93;2.20;;;;;;;;;;5043071;28;20195;-67
2022/01/09 11:13:16;;;;;;;10.53;2.33;;;;;;;;;;5036166;28;20181;-68
2022/01/09 11:16:32;;;;;;;12.73;1.97;;;;;;;;;;5043904;28;20193;-68
2022/01/09 11:18:27;;;;;;;7.53;1.50;;;;;;;;;;5045446;28;20280;-67
2022/01/09 11:20:53;;;;;;;10.07;2.10;;;;;;;;;;5044384;28;20591;-67
2022/01/09 11:23:20;;;;;;;13.80;1.93;;;;;;;;;;5044822;28;20213;-67
2022/01/09 11:25:51;;;;;;;11.57;2.20;;;;;;;;;;5046317;28;20181;-68
2022/01/09 11:28:24;;;;;;;9.40;2.50;;;;;;;;;;5033201;28;20281;-67
2022/01/09 11:31:14;;;;;;;9.07;1.73;;;;;;;;;;5041188;28;20284;-68
2022/01/09 11:34:06;;;;;;;11.33;2.47;;;;;;;;;;5044174;28;20174;-67
2022/01/09 11:36:43;;;;;;;14.10;2.43;;;;;;;;;;5044719;28;20697;-68
2022/01/09 11:39:15;;;;;;;9.17;1.60;;;;;;;;;;5043479;28;20271;-68
2022/01/09 11:41:42;;;;;;;6.57;2.10;;;;;;;;;;5041568;28;20194;-67
2022/01/09 11:44:10;;;;;;;9.13;2.07;;;;;;;;;;5034859;28;20245;-67
2022/01/09 11:46:56;;;;;;;11.17;2.20;;;;;;;;;;5045209;28;20201;-67
2022/01/09 11:49:22;;;;;;;14.30;2.10;;;;;;;;;;5041955;28;20714;-67
2022/01/09 11:51:53;;;;;;;7.43;1.70;;;;;;;;;;5049261;28;20173;-68
2022/01/09 11:54:20;;;;;;;9.43;1.90;;;;;;;;;;5043828;28;20197;-67
2022/01/09 11:56:56;;;;;;;8.30;1.77;;;;;;;;;;5042773;28;20247;-68
2022/01/09 11:59:27;;;;;;;10.93;1.87;;;;;;;;;;5045242;28;20245;-68
2022/01/09 12:01:59;;;;;;;10.90;2.83;;;;;;;;;;5044772;28;20206;-68
2022/01/09 12:04:30;;;;;;;6.07;1.23;;;;;;;;;;5039558;28;20276;-67
2022/01/09 12:07:00;;;;;;;8.17;2.23;;;;;;;;;;5041419;28;20251;-68
2022/01/09 12:09:41;;;;;;;9.37;1.60;;;;;;;;;;5050657;28;20231;-68
2022/01/09 12:12:09;;;;;;;9.47;2.03;;;;;;;;;;5042657;28;20213;-68
2022/01/09 12:15:02;;;;;;;4.70;0.93;;;;;;;;;;5049797;28;20193;-67
2022/01/09 12:17:35;;;;;;;3.23;0.90;;;;;;;;;;5048047;28;20181;-67
2022/01/09 12:20:11;;;;;;;5.47;1.07;;;;;;;;;;5048606;28;20201;-67
2022/01/09 12:22:39;;;;;;;5.33;0.70;;;;;;;;;;5044102;28;20292;-67
2022/01/09 12:25:06;;;;;;;4.37;1.00;;;;;;;;;;5044581;28;20202;-67
2022/01/09 12:27:42;;;;;;;5.70;1.00;;;;;;;;;;5045024;28;20260;-67
2022/01/09 12:30:10;;;;;;;3.17;0.83;;;;;;;;;;5048279;28;20284;-67
2022/01/09 12:32:44;;;;;;;5.63;1.23;;;;;;;;;;5040857;28;20201;-67
2022/01/09 12:35:18;;;;;;;5.63;0.90;;;;;;;;;;5043699;28;20200;-67
2022/01/09 12:37:55;;;;;;;7.57;1.20;;;;;;;;;;5044634;28;20193;-67
2022/01/09 12:40:22;;;;;;;3.87;1.10;;;;;;;;;;5043181;28;20193;-67
2022/01/09 12:42:56;;;;;;;3.90;1.00;;;;;;;;;;5048404;28;20215;-68
2022/01/09 12:45:22;;;;;;;3.77;1.00;;;;;;;;;;5044729;28;20272;-67
2022/01/09 12:47:49;;;;;;;6.17;0.70;;;;;;;;;;5046871;28;20625;-67
2022/01/09 12:50:15;;;;;;;6.27;1.17;;;;;;;;;;5044990;28;20311;-67
2022/01/09 12:52:42;;;;;;;5.33;0.90;;;;;;;;;;5047777;28;20186;-68
2022/01/09 12:55:10;;;;;;;3.20;0.80;;;;;;;;;;5045791;28;20662;-67
2022/01/09 12:57:55;;;;;;;2.67;0.77;;;;;;;;;;5046092;28;20190;-67
2022/01/09 13:00:29;;;;;;;3.50;0.77;;;;;;;;;;5041149;28;22006;-66
2022/01/09 13:02:58;;;;;;;3.23;0.53;;;;;;;;;;5039185;28;20569;-66
2022/01/09 13:05:25;;;;;;;3.20;0.70;;;;;;;;;;5044629;28;20636;-67
2022/01/09 13:07:58;;;;;;;4.43;0.77;;;;;;;;;;5044267;28;20555;-67
2022/01/09 13:10:28;;;;;;;5.20;0.90;;;;;;;;;;5044342;28;20190;-68
2022/01/09 13:13:01;;;;;;;6.07;1.07;;;;;;;;;;5040392;28;20545;-68
2022/01/09 13:15:35;;;;;;;4.93;0.90;;;;;;;;;;5042602;28;20715;-68
2022/01/09 13:18:02;;;;;;;4.73;0.67;;;;;;;;;;5040331;28;20251;-71
2022/01/09 13:20:28;;;;;;;4.13;1.10;;;;;;;;;;5041951;28;20247;-71
2022/01/09 13:23:06;;;;;;;7.63;1.13;;;;;;;;;;5042603;28;20197;-71
2022/01/09 13:25:47;;;;;;;4.33;1.00;;;;;;;;;;5042860;28;20194;-71
2022/01/09 13:28:27;;;;;;;6.03;1.43;;;;;;;;;;5040238;28;20218;-71
2022/01/09 13:30:57;;;;;;;4.97;1.53;;;;;;;;;;5041265;28;20211;-71
2022/01/09 13:33:22;;;;;;;9.47;1.90;;;;;;;;;;5042804;28;20185;-71
2022/01/09 13:35:47;;;;;;;8.80;1.67;;;;;;;;;;5043723;28;20200;-70
2022/01/09 13:38:13;;;;;;;7.70;1.80;;;;;;;;;;5040235;28;20240;-70
2022/01/09 13:40:39;;;;;;;6.80;1.63;;;;;;;;;;5044349;28;20519;-69
2022/01/09 13:43:05;;;;;;;9.03;1.70;;;;;;;;;;5041577;28;20284;-69
2022/01/09 13:45:34;;;;;;;7.50;1.70;;;;;;;;;;5044161;28;20191;-70
2022/01/09 13:47:59;;;;;;;8.07;1.40;;;;;;;;;;5043027;28;20193;-69
2022/01/09 13:50:32;;;;;;;11.73;1.97;;;;;;;;;;5041578;28;20517;-68
2022/01/09 13:53:06;;;;;;;8.20;1.80;;;;;;;;;;5042697;28;20177;-68
2022/01/09 13:55:34;;;;;;;8.90;1.50;;;;;;;;;;5040723;28;20181;-68
2022/01/09 13:58:07;;;;;;;8.70;1.40;;;;;;;;;;5042332;28;20655;-69
2022/01/09 14:00:35;;;;;;;7.03;1.60;;;;;;;;;;5040850;28;20186;-69
2022/01/09 14:03:04;;;;;;;10.23;1.40;;;;;;;;;;5043639;28;20202;-69
2022/01/09 14:05:43;;;;;;;8.43;1.47;;;;;;;;;;5040816;28;20190;-69
2022/01/09 14:08:12;;;;;;;6.53;1.83;;;;;;;;;;5037399;28;20455;-69
2022/01/09 14:10:40;;;;;;;11.93;1.70;;;;;;;;;;5038044;28;20177;-71
2022/01/09 14:13:11;;;;;;;13.03;2.70;;;;;;;;;;5041839;28;20566;-69
2022/01/09 14:15:38;;;;;;;10.57;2.07;;;;;;;;;;5042599;28;20197;-69
2022/01/09 14:18:03;;;;;;;9.97;1.70;;;;;;;;;;5037742;28;20220;-69
2022/01/09 14:20:29;;;;;;;9.50;1.77;;;;;;;;;;5038121;28;20197;-68
2022/01/09 14:23:11;;;;;;;8.20;2.10;;;;;;;;;;5038535;28;20209;-68
2022/01/09 14:25:39;;;;;;;13.60;2.30;;;;;;;;;;5046287;28;20185;-68
2022/01/09 14:28:09;;;;;;;9.47;1.90;;;;;;;;;;5042920;28;20641;-68
2022/01/09 14:30:37;;;;;;;8.83;1.77;;;;;;;;;;5041651;28;20223;-68
2022/01/09 14:33:13;;;;;;;9.17;2.43;;;;;;;;;;5041990;28;20177;-68